createdAt,value
2022-12-19T00:01:20.439Z,11.30
2022-12-19T00:03:50.690Z,11.52
2022-12-19T00:06:22.347Z,10.50
2022-12-19T00:08:51.488Z,13.10
2022-12-19T00:11:21.877Z,13.43
2022-12-19T00:13:49.940Z,13.00
2022-12-19T00:16:23.303Z,10.90
2022-12-19T00:18:55.355Z,13.53
2022-12-19T00:21:26.304Z,17.63
2022-12-19T00:23:54.928Z,11.00
2022-12-19T00:26:28.277Z,13.97
2022-12-19T00:28:58.653Z,9.30
2022-12-19T00:31:28.904Z,10.43
2022-12-19T00:33:57.389Z,15.83
2022-12-19T00:36:28.467Z,8.97
2022-12-19T00:38:59.137Z,11.00
2022-12-19T00:41:32.835Z,12.17
2022-12-19T00:44:03.886Z,13.57
2022-12-19T00:46:33.907Z,8.77
2022-12-19T00:49:02.339Z,12.33
2022-12-19T00:51:34.303Z,10.47
2022-12-19T00:54:03.127Z,12.33
2022-12-19T00:56:37.212Z,9.73
2022-12-19T00:59:09.193Z,13.70
2022-12-19T01:01:40.373Z,15.37
2022-12-19T01:04:28.320Z,9.57
2022-12-19T01:06:57.906Z,15.53
2022-12-19T01:09:35.908Z,14.90
2022-12-19T01:12:24.846Z,14.50
2022-12-19T01:15:02.898Z,15.40
2022-12-19T01:17:37.752Z,8.60
2022-12-19T01:20:15.061Z,13.83
2022-12-19T01:22:43.354Z,10.73
2022-12-19T01:25:14.648Z,12.43
2022-12-19T01:27:42.576Z,13.37
2022-12-19T01:30:11.445Z,14.33
2022-12-19T01:32:40.191Z,15.83
2022-12-19T01:35:09.935Z,16.57
2022-12-19T01:37:48.948Z,13.53
2022-12-19T01:40:18.175Z,10.43
2022-12-19T01:42:46.148Z,11.13
2022-12-19T01:45:17.093Z,17.17
2022-12-19T01:48:11.880Z,9.67
2022-12-19T01:50:58.825Z,10.37
2022-12-19T01:54:01.490Z,9.50
2022-12-19T01:56:35.968Z,8.27
2022-12-19T01:59:10.191Z,13.37
2022-12-19T02:01:51.496Z,7.73
2022-12-19T02:04:26.342Z,12.07
2022-12-19T02:06:59.762Z,14.70
2022-12-19T02:09:34.891Z,11.80
2022-12-19T02:15:02.489Z,14.43
2022-12-19T02:17:42.163Z,12.53
2022-12-19T02:20:35.024Z,18.87
2022-12-19T02:23:38.520Z,12.50
2022-12-19T02:26:25.944Z,12.63
2022-12-19T02:29:18.753Z,17.00
2022-12-19T02:32:15.991Z,11.50
2022-12-19T02:34:58.454Z,17.27
2022-12-19T02:37:28.800Z,12.13
2022-12-19T02:40:06.693Z,16.87
2022-12-19T02:42:39.476Z,11.17
2022-12-19T02:45:10.216Z,10.87
2022-12-19T02:47:39.342Z,12.73
2022-12-19T02:50:08.606Z,15.00
2022-12-19T02:52:36.594Z,14.13
2022-12-19T02:55:09.420Z,14.43
2022-12-19T02:57:55.639Z,18.37
2022-12-19T03:00:27.522Z,16.80
2022-12-19T03:03:22.837Z,15.47
2022-12-19T03:06:05.843Z,14.13
2022-12-19T03:09:11.850Z,19.63
2022-12-19T03:11:41.996Z,16.30
2022-12-19T03:14:14.168Z,13.73
2022-12-19T03:16:42.553Z,8.27
2022-12-19T03:19:13.303Z,14.43
2022-12-19T03:21:46.009Z,21.00
2022-12-19T03:24:14.914Z,13.40
2022-12-19T03:26:46.495Z,11.70
2022-12-19T03:29:25.158Z,15.23
2022-12-19T03:31:54.287Z,18.97
2022-12-19T03:34:26.611Z,18.80
2022-12-19T03:36:59.837Z,8.43
2022-12-19T03:39:28.701Z,10.25
2022-12-19T03:42:17.674Z,13.50
2022-12-19T03:44:45.516Z,14.90
2022-12-19T03:47:33.592Z,15.80
2022-12-19T03:50:01.484Z,17.85
2022-12-19T03:52:40.269Z,15.02
2022-12-19T03:55:39.068Z,13.17
2022-12-19T03:58:12.377Z,12.03
2022-12-19T04:00:47.310Z,15.33
2022-12-19T04:03:18.376Z,13.05
2022-12-19T04:05:48.486Z,15.23
2022-12-19T04:08:17.179Z,14.57
2022-12-19T04:10:51.134Z,13.43
2022-12-19T04:13:35.415Z,14.90
2022-12-19T04:16:28.384Z,9.25
2022-12-19T04:19:05.497Z,18.37
2022-12-19T04:21:43.882Z,7.30
2022-12-19T04:24:18.827Z,11.27
2022-12-19T04:26:49.424Z,14.15
2022-12-19T04:29:18.424Z,10.20
2022-12-19T04:31:46.854Z,14.18
2022-12-19T04:34:18.719Z,16.85
2022-12-19T04:36:47.103Z,16.15
2022-12-19T04:39:15.073Z,11.27
2022-12-19T04:41:42.860Z,15.55
2022-12-19T04:44:10.667Z,10.18
2022-12-19T04:46:38.739Z,13.00
2022-12-19T04:49:06.589Z,19.17
2022-12-19T04:51:34.419Z,14.57
2022-12-19T04:54:02.201Z,15.43
2022-12-19T04:56:30.069Z,15.95
2022-12-19T04:58:59.296Z,16.80
2022-12-19T05:01:27.587Z,16.23
2022-12-19T05:03:59.915Z,12.85
2022-12-19T05:06:30.758Z,12.90
2022-12-19T05:08:58.637Z,14.38
2022-12-19T05:11:26.448Z,12.43
2022-12-19T05:13:54.298Z,11.48
2022-12-19T05:16:22.387Z,11.80
2022-12-19T05:18:50.376Z,10.80
2022-12-19T05:21:18.216Z,11.48
2022-12-19T05:23:46.133Z,10.70
2022-12-19T05:26:13.927Z,8.80
2022-12-19T05:28:41.799Z,8.98
2022-12-19T05:31:11.106Z,10.27
2022-12-19T05:33:40.554Z,11.48
2022-12-19T05:36:09.767Z,10.52
2022-12-19T05:38:37.510Z,9.10
2022-12-19T05:41:14.073Z,9.07
2022-12-19T05:43:42.529Z,6.97
2022-12-19T05:46:10.746Z,9.30
2022-12-19T05:48:39.178Z,9.68
2022-12-19T05:51:07.422Z,12.43
2022-12-19T05:53:39.344Z,7.78
2022-12-19T05:56:18.482Z,7.43
2022-12-19T05:58:47.516Z,8.27
2022-12-19T06:01:26.515Z,10.15
2022-12-19T06:03:55.551Z,13.10
2022-12-19T06:06:26.114Z,10.35
2022-12-19T06:08:58.455Z,7.55
2022-12-19T06:11:27.270Z,9.45
2022-12-19T06:13:55.124Z,7.47
2022-12-19T06:16:23.720Z,9.98
2022-12-19T06:18:51.858Z,9.75
2022-12-19T06:21:22.416Z,8.35
2022-12-19T06:23:50.565Z,10.38
2022-12-19T06:26:21.008Z,7.90
2022-12-19T06:28:50.543Z,10.15
2022-12-19T06:31:19.895Z,9.20
2022-12-19T06:33:48.313Z,5.38
2022-12-19T06:36:23.863Z,8.70
2022-12-19T06:38:52.116Z,8.63
2022-12-19T06:41:39.316Z,8.80
2022-12-19T06:44:10.451Z,9.05
2022-12-19T06:46:40.198Z,6.65
2022-12-19T06:49:09.168Z,5.88
2022-12-19T06:51:37.362Z,6.45
2022-12-19T06:54:05.408Z,8.75
2022-12-19T06:56:37.654Z,9.02
2022-12-19T06:59:06.543Z,5.93
2022-12-19T07:01:40.503Z,9.77
2022-12-19T07:04:11.532Z,7.15
2022-12-19T07:06:40.209Z,9.57
2022-12-19T07:09:10.288Z,7.90
2022-12-19T07:11:39.380Z,8.30
2022-12-19T07:14:07.297Z,7.97
2022-12-19T07:16:38.435Z,8.13
2022-12-19T07:19:08.797Z,10.32
2022-12-19T07:21:37.377Z,8.95
2022-12-19T07:24:06.069Z,9.55
2022-12-19T07:26:34.044Z,10.15
2022-12-19T07:29:01.956Z,9.93
2022-12-19T07:31:29.872Z,7.53
2022-12-19T07:33:58.024Z,9.32
2022-12-19T07:36:26.108Z,8.20
2022-12-19T07:38:54.043Z,8.07
2022-12-19T07:41:21.908Z,8.88
2022-12-19T07:43:49.771Z,9.23
2022-12-19T07:46:17.576Z,7.78
2022-12-19T07:48:45.464Z,9.32
2022-12-19T07:51:13.373Z,8.90
2022-12-19T07:53:41.207Z,9.40
2022-12-19T07:56:09.255Z,8.88
2022-12-19T07:58:37.760Z,5.68
2022-12-19T08:01:06.465Z,9.98
2022-12-19T08:03:36.020Z,10.02
2022-12-19T08:06:06.106Z,8.93
2022-12-19T08:08:34.525Z,9.23
2022-12-19T08:11:19.585Z,8.90
2022-12-19T08:13:49.918Z,9.93
2022-12-19T08:16:17.908Z,8.15
2022-12-19T08:18:46.175Z,9.52
2022-12-19T08:21:14.556Z,9.80
2022-12-19T08:23:42.566Z,10.05
2022-12-19T08:26:13.688Z,9.45
2022-12-19T08:28:41.958Z,7.95
2022-12-19T08:31:15.560Z,7.70
2022-12-19T08:33:43.982Z,8.60
2022-12-19T08:36:14.718Z,8.70
2022-12-19T08:38:42.767Z,8.10
2022-12-19T08:41:11.620Z,7.75
2022-12-19T08:43:39.541Z,8.20
2022-12-19T08:46:08.121Z,7.78
2022-12-19T08:48:36.652Z,7.90
2022-12-19T08:51:07.139Z,6.78
2022-12-19T08:53:37.094Z,6.88
2022-12-19T08:56:19.257Z,7.45
2022-12-19T08:58:47.404Z,5.32
2022-12-19T09:01:19.209Z,7.13
2022-12-19T09:05:07.764Z,7.50
2022-12-19T09:06:36.579Z,7.07
2022-12-19T09:09:05.870Z,7.13
2022-12-19T09:11:35.916Z,7.40
2022-12-19T09:14:16.376Z,6.05
2022-12-19T09:16:49.581Z,7.10
2022-12-19T09:19:18.157Z,6.55
2022-12-19T09:21:46.151Z,6.18
2022-12-19T09:24:14.568Z,7.55
2022-12-19T09:26:43.835Z,6.10
2022-12-19T09:29:19.610Z,5.82
2022-12-19T09:31:55.244Z,6.00
2022-12-19T09:34:38.177Z,6.20
2022-12-19T09:37:08.385Z,6.47
2022-12-19T09:39:36.664Z,5.00
2022-12-19T09:42:39.432Z,6.35
2022-12-19T09:45:31.665Z,6.25
2022-12-19T09:48:02.482Z,5.50
2022-12-19T09:50:46.671Z,6.95
2022-12-19T09:53:31.470Z,6.28
2022-12-19T09:56:00.696Z,5.85
2022-12-19T09:58:54.182Z,5.85
2022-12-19T10:01:39.811Z,6.10
2022-12-19T10:04:13.885Z,5.88
2022-12-19T10:07:21.337Z,6.87
2022-12-19T10:12:12.726Z,5.88
2022-12-19T10:12:49.921Z,6.72
2022-12-19T10:15:41.229Z,6.22
2022-12-19T10:18:29.562Z,5.93
2022-12-19T10:21:36.985Z,5.35
2022-12-19T10:24:35.388Z,6.68
2022-12-19T10:27:37.298Z,6.60
2022-12-19T10:30:23.897Z,6.50
2022-12-19T10:32:57.817Z,5.93
2022-12-19T10:35:32.433Z,6.55
2022-12-19T10:40:47.737Z,5.88
2022-12-19T10:43:34.692Z,5.55
2022-12-19T10:46:38.046Z,5.65
2022-12-19T10:49:25.265Z,6.22
2022-12-19T10:51:56.259Z,5.93
2022-12-19T10:54:39.698Z,5.97
2022-12-19T10:57:23.307Z,6.50
2022-12-19T11:00:05.209Z,6.60
2022-12-19T11:02:39.484Z,6.85
2022-12-19T11:05:23.622Z,6.15
2022-12-19T11:08:25.230Z,6.82
2022-12-19T11:12:22.785Z,5.70
2022-12-19T11:19:13.530Z,5.18
2022-12-19T11:25:38.200Z,6.03
2022-12-19T11:29:17.342Z,5.97
2022-12-19T11:29:37.372Z,6.07
2022-12-19T11:29:54.950Z,5.68
2022-12-19T11:30:36.679Z,5.47
2022-12-19T11:34:35.674Z,5.28
2022-12-19T11:37:28.916Z,5.75
2022-12-19T11:40:10.209Z,5.28
2022-12-19T11:43:41.788Z,4.95
2022-12-19T11:45:56.934Z,5.30
2022-12-19T11:48:50.460Z,4.82
2022-12-19T11:51:25.401Z,5.30
2022-12-19T11:56:39.881Z,5.20
2022-12-19T11:59:19.232Z,5.18
2022-12-19T12:01:53.515Z,4.07
2022-12-19T12:04:30.720Z,5.38
2022-12-19T12:07:01.633Z,4.22
2022-12-19T12:12:10.484Z,4.22
2022-12-19T12:16:27.052Z,6.20
2022-12-19T12:26:11.543Z,5.20
2022-12-19T12:31:07.544Z,5.50
2022-12-19T12:31:15.525Z,5.40
2022-12-19T12:31:45.128Z,5.55
2022-12-19T12:32:06.163Z,5.55
2022-12-19T12:35:29.285Z,4.80
2022-12-19T12:35:40.507Z,5.05
2022-12-19T12:41:07.051Z,4.72
2022-12-19T12:44:09.241Z,4.78
2022-12-19T12:46:44.599Z,5.10
2022-12-19T12:49:24.829Z,5.03
2022-12-19T12:51:53.280Z,4.85
2022-12-19T12:54:23.737Z,4.82
2022-12-19T12:56:51.679Z,4.82
2022-12-19T12:59:24.299Z,4.50
2022-12-19T13:02:01.717Z,4.13
2022-12-19T13:04:37.074Z,3.75
2022-12-19T13:07:15.539Z,4.20
2022-12-19T13:09:44.075Z,4.15
2022-12-19T13:12:47.085Z,4.03
2022-12-19T13:15:32.059Z,3.72
2022-12-19T13:18:33.205Z,3.50
2022-12-19T13:21:03.806Z,4.20
2022-12-19T13:23:47.688Z,4.03
2022-12-19T13:26:44.779Z,4.40
2022-12-19T13:29:29.421Z,3.75
2022-12-19T13:32:12.599Z,3.50
2022-12-19T13:34:44.042Z,3.72
2022-12-19T13:39:54.016Z,4.20
2022-12-19T13:40:33.103Z,3.33
2022-12-19T13:43:29.604Z,2.38
2022-12-19T13:46:20.254Z,3.90
2022-12-19T13:48:52.307Z,4.20
2022-12-19T13:51:21.717Z,3.35
2022-12-19T13:53:59.526Z,4.10
2022-12-19T13:56:31.817Z,3.60
2022-12-19T13:59:04.760Z,3.60
2022-12-19T14:01:35.846Z,3.92
2022-12-19T14:04:13.437Z,3.33
2022-12-19T14:06:46.352Z,3.75
2022-12-19T14:11:27.428Z,3.10
2022-12-19T14:13:55.314Z,3.15
2022-12-19T14:15:33.959Z,3.55
2022-12-19T14:18:41.811Z,3.60
2022-12-19T14:22:07.802Z,3.40
2022-12-19T14:24:18.299Z,3.92
2022-12-19T14:28:23.522Z,3.80
2022-12-19T14:30:27.276Z,3.63
2022-12-19T14:33:40.606Z,3.13
2022-12-19T14:36:10.320Z,3.65
2022-12-19T14:39:19.822Z,4.03
2022-12-19T14:41:46.340Z,4.47
2022-12-19T14:51:25.249Z,4.68
2022-12-19T14:54:06.106Z,4.47
2022-12-19T14:54:08.899Z,3.78
2022-12-19T14:54:46.701Z,4.03
2022-12-19T14:56:58.309Z,3.92
2022-12-19T14:59:17.316Z,3.55
2022-12-19T15:01:52.987Z,4.40
2022-12-19T15:04:52.103Z,4.10
2022-12-19T15:07:23.710Z,3.75
2022-12-19T15:11:07.285Z,4.15
2022-12-19T15:14:47.900Z,3.60
2022-12-19T15:16:04.467Z,3.60
2022-12-19T15:18:42.690Z,4.15
2022-12-19T15:21:14.725Z,3.97
2022-12-19T15:23:45.360Z,3.90
2022-12-19T15:26:20.445Z,4.60
2022-12-19T15:28:53.481Z,4.47
2022-12-19T15:31:38.982Z,4.10
2022-12-19T15:34:35.776Z,4.60
2022-12-19T15:37:06.243Z,4.07
2022-12-19T15:39:34.201Z,3.92
2022-12-19T15:42:02.583Z,4.38
2022-12-19T15:44:36.768Z,4.40
2022-12-19T15:47:14.882Z,4.60
2022-12-19T15:49:42.892Z,4.85
2022-12-19T15:52:21.315Z,4.38
2022-12-19T15:54:51.797Z,3.88
2022-12-19T15:57:32.469Z,3.95
2022-12-19T16:00:04.951Z,3.72
2022-12-19T16:05:24.309Z,3.83
2022-12-19T16:07:52.489Z,3.55
2022-12-19T16:10:20.540Z,3.15
2022-12-19T16:12:57.785Z,3.38
2022-12-19T16:15:32.010Z,3.90
2022-12-19T16:18:02.939Z,3.63
2022-12-19T16:20:37.920Z,2.92
2022-12-19T16:25:40.397Z,3.25
2022-12-19T16:28:18.439Z,3.65
2022-12-19T16:30:47.369Z,4.35
2022-12-19T16:33:21.656Z,4.50
2022-12-19T16:36:07.591Z,5.03
2022-12-19T16:38:36.688Z,4.53
2022-12-19T16:41:04.638Z,4.68
2022-12-19T16:43:42.693Z,4.88
2022-12-19T16:46:18.167Z,4.82
2022-12-19T16:48:47.532Z,5.28
2022-12-19T16:51:21.039Z,5.93
2022-12-19T16:53:50.652Z,6.47
2022-12-19T16:56:27.274Z,6.05
2022-12-19T16:58:56.430Z,6.10
2022-12-19T17:01:24.346Z,6.80
2022-12-19T17:03:55.040Z,6.18
2022-12-19T17:06:23.715Z,6.80
2022-12-19T17:08:52.500Z,6.43
2022-12-19T17:11:25.271Z,6.38
2022-12-19T17:14:01.762Z,6.72
2022-12-19T17:16:31.095Z,6.95
2022-12-19T17:19:00.432Z,6.15
2022-12-19T17:21:28.517Z,7.78
2022-12-19T17:23:56.433Z,7.97
2022-12-19T17:26:24.517Z,7.05
2022-12-19T17:28:52.312Z,6.60
2022-12-19T17:31:27.609Z,7.43
2022-12-19T17:33:57.839Z,6.97
2022-12-19T17:36:36.941Z,7.47
2022-12-19T17:39:27.054Z,6.80
2022-12-19T17:42:09.943Z,6.28
2022-12-19T17:44:38.106Z,5.38
2022-12-19T17:47:06.098Z,5.95
2022-12-19T17:49:35.417Z,6.70
2022-12-19T17:52:03.263Z,6.45
2022-12-19T17:54:32.557Z,5.93
2022-12-19T17:57:00.373Z,5.85
2022-12-19T17:59:28.679Z,6.00
2022-12-19T18:01:56.928Z,6.13
2022-12-19T18:04:26.114Z,5.07
2022-12-19T18:06:54.240Z,5.55
2022-12-19T18:09:24.810Z,5.47
2022-12-19T18:11:53.227Z,5.35
2022-12-19T18:14:21.417Z,5.97
2022-12-19T18:16:51.300Z,5.80
2022-12-19T18:19:21.912Z,5.45
2022-12-19T18:21:50.345Z,5.13
2022-12-19T18:24:18.331Z,5.03
2022-12-19T18:26:46.789Z,6.05
2022-12-19T18:29:15.285Z,5.85
2022-12-19T18:31:50.084Z,5.43
2022-12-19T18:34:26.471Z,5.70
2022-12-19T18:36:54.529Z,5.07
2022-12-19T18:39:23.428Z,5.40
2022-12-19T18:41:53.234Z,5.15
2022-12-19T18:44:23.037Z,4.95
2022-12-19T18:46:51.794Z,5.20
2022-12-19T18:49:20.125Z,5.22
2022-12-19T18:51:48.332Z,4.72
2022-12-19T18:54:22.255Z,4.63
2022-12-19T18:56:52.789Z,5.38
2022-12-19T18:59:23.992Z,5.15
2022-12-19T19:01:52.352Z,5.22
2022-12-19T19:04:22.163Z,4.47
2022-12-19T19:06:52.817Z,4.97
2022-12-19T19:09:21.932Z,4.72
2022-12-19T19:12:19.389Z,3.85
2022-12-19T19:14:47.350Z,3.65
2022-12-19T19:17:27.477Z,4.85
2022-12-19T19:19:55.887Z,4.65
2022-12-19T19:22:24.981Z,8.50
2022-12-19T19:24:52.829Z,5.20
2022-12-19T19:27:20.746Z,4.40
2022-12-19T19:29:48.641Z,4.45
2022-12-19T19:32:17.094Z,4.75
2022-12-19T19:34:45.621Z,5.40
2022-12-19T19:37:15.289Z,5.28
2022-12-19T19:39:43.397Z,5.07
2022-12-19T19:42:12.134Z,5.90
2022-12-19T19:44:40.252Z,4.40
2022-12-19T19:47:08.868Z,3.47
2022-12-19T19:49:36.810Z,4.38
2022-12-19T19:52:04.931Z,3.70
2022-12-19T19:54:34.721Z,3.55
2022-12-19T19:57:02.897Z,3.60
2022-12-19T19:59:33.801Z,2.95
2022-12-19T20:02:01.797Z,3.13
2022-12-19T20:04:29.926Z,2.75
2022-12-19T20:06:57.909Z,3.17
2022-12-19T20:09:26.300Z,2.78
2022-12-19T20:11:54.095Z,2.70
2022-12-19T20:14:22.518Z,2.17
2022-12-19T20:16:50.705Z,2.25
2022-12-19T20:19:18.783Z,1.70
2022-12-19T20:21:48.516Z,2.83
2022-12-19T20:24:16.561Z,2.45
2022-12-19T20:26:44.639Z,2.90
2022-12-19T20:29:13.968Z,3.38
2022-12-19T20:31:42.692Z,3.08
2022-12-19T20:34:10.926Z,3.13
2022-12-19T20:36:39.482Z,2.92
2022-12-19T20:39:09.341Z,2.83
2022-12-19T20:41:37.438Z,2.55
2022-12-19T20:44:05.531Z,2.90
2022-12-19T20:46:33.546Z,5.90
2022-12-19T20:49:01.380Z,2.83
2022-12-19T20:51:29.247Z,2.88
2022-12-19T20:53:57.086Z,3.00
2022-12-19T20:56:26.024Z,2.60
2022-12-19T20:58:54.341Z,2.90
2022-12-19T21:01:24.453Z,2.80
2022-12-19T21:03:53.267Z,2.83
2022-12-19T21:06:25.357Z,2.60
2022-12-19T21:08:54.845Z,2.88
2022-12-19T21:11:23.851Z,2.85
2022-12-19T21:13:52.067Z,2.80
2022-12-19T21:16:29.295Z,2.80
2022-12-19T21:18:59.840Z,2.53
2022-12-19T21:21:28.188Z,3.28
2022-12-19T21:23:56.489Z,2.75
2022-12-19T21:26:26.171Z,3.20
2022-12-19T21:28:54.691Z,3.10
2022-12-19T21:31:28.283Z,3.03
2022-12-19T21:33:58.655Z,2.80
2022-12-19T21:36:28.918Z,3.22
2022-12-19T21:38:58.958Z,2.75
2022-12-19T21:41:28.031Z,3.22
2022-12-19T21:43:56.697Z,2.55
2022-12-19T21:46:27.748Z,2.78
2022-12-19T21:48:57.099Z,2.40
2022-12-19T21:51:28.123Z,3.10
2022-12-19T21:54:00.302Z,2.60
2022-12-19T21:56:39.547Z,2.78
2022-12-19T21:59:17.626Z,2.60
2022-12-19T22:01:45.898Z,2.30
2022-12-19T22:04:17.931Z,2.70
2022-12-19T22:06:46.184Z,2.60
2022-12-19T22:09:17.442Z,3.38
2022-12-19T22:11:46.141Z,2.50
2022-12-19T22:14:15.418Z,2.53
2022-12-19T22:16:44.207Z,2.53
2022-12-19T22:19:15.612Z,2.40
2022-12-19T22:21:45.971Z,2.88
2022-12-19T22:24:19.969Z,2.50
2022-12-19T22:26:51.646Z,2.50
2022-12-19T22:29:19.799Z,2.72
2022-12-19T22:31:48.279Z,2.38
2022-12-19T22:34:19.566Z,2.60
2022-12-19T22:36:48.750Z,2.17
2022-12-19T22:39:21.416Z,2.60
2022-12-19T22:41:49.687Z,2.35
2022-12-19T22:44:20.492Z,2.50
2022-12-19T22:46:49.557Z,2.40
2022-12-19T22:49:17.721Z,2.60
2022-12-19T22:51:45.646Z,2.33
2022-12-19T22:54:14.499Z,2.42
2022-12-19T22:56:42.417Z,2.70
2022-12-19T22:59:12.173Z,2.40
2022-12-19T23:01:42.154Z,2.40
2022-12-19T23:04:13.619Z,2.53
2022-12-19T23:06:41.798Z,2.40
2022-12-19T23:09:12.553Z,2.20
2022-12-19T23:11:42.674Z,2.20
2022-12-19T23:14:14.802Z,2.50
2022-12-19T23:16:43.992Z,2.47
2022-12-19T23:19:13.811Z,2.50
2022-12-19T23:21:41.674Z,2.40
2022-12-19T23:24:09.588Z,2.58
2022-12-19T23:26:38.088Z,2.85
2022-12-19T23:29:09.315Z,2.55
2022-12-19T23:31:41.041Z,2.40
2022-12-19T23:34:10.562Z,2.78
2022-12-19T23:39:26.358Z,2.08
2022-12-19T23:41:54.161Z,2.33
2022-12-19T23:44:22.219Z,2.72
2022-12-19T23:46:50.132Z,2.65
2022-12-19T23:49:17.911Z,2.40
2022-12-19T23:51:45.701Z,2.03
2022-12-19T23:54:13.499Z,2.50
2022-12-19T23:56:41.421Z,2.80
2022-12-19T23:59:09.289Z,2.60
